Time;durP1;ratioP1;P1;durP2;ratioP2;P2;SDS_P1;SDS_P2;PMS_P1;PMS_P2;Temp;Humidity;BMP_temperature;BMP_pressure;BME280_temperature;BME280_humidity;BME280_pressure;Samples;Min_cycle;Max_cycle;Signal;HPM_P1;HPM_P2
2023/02/02 00:02:09;;;;;;;2.45;0.65;;;5.60;84.90;;;;;;5084233;28;20048;-63
2023/02/02 00:04:42;;;;;;;1.35;0.28;;;5.60;84.80;;;;;;5083800;28;20059;-62
2023/02/02 00:07:16;;;;;;;2.05;0.30;;;5.50;85.20;;;;;;5083424;28;20135;-63
2023/02/02 00:09:43;;;;;;;1.70;0.30;;;5.70;85.10;;;;;;5090158;28;20055;-62
2023/02/02 00:12:10;;;;;;;0.47;0.30;;;5.60;85.20;;;;;;5087526;28;20603;-64
2023/02/02 00:14:36;;;;;;;0.70;0.30;;;5.60;85.20;;;;;;5087439;28;20087;-63
2023/02/02 00:17:04;;;;;;;0.98;0.30;;;5.60;85.10;;;;;;5087972;28;20063;-59
2023/02/02 00:19:33;;;;;;;1.83;0.32;;;5.50;85.20;;;;;;5087734;28;20085;-59
2023/02/02 00:22:00;;;;;;;1.80;0.40;;;5.60;85.30;;;;;;5088666;28;20055;-61
2023/02/02 00:24:26;;;;;;;0.68;0.40;;;5.50;85.30;;;;;;5086911;28;20036;-61
2023/02/02 00:26:55;;;;;;;0.52;0.30;;;5.30;85.60;;;;;;5089185;28;20048;-62
2023/02/02 00:29:24;;;;;;;1.60;0.40;;;5.40;85.80;;;;;;5087146;28;20036;-63
2023/02/02 00:31:51;;;;;;;0.82;0.40;;;5.40;85.50;;;;;;5083037;28;20487;-65
2023/02/02 00:34:19;;;;;;;2.88;0.60;;;5.50;85.40;;;;;;5082034;28;20078;-66
2023/02/02 00:36:50;;;;;;;0.52;0.40;;;5.50;85.20;;;;;;5083297;28;20052;-62
2023/02/02 00:39:18;;;;;;;;;;;5.50;85.20;;;;;;5062992;28;20113;-61
2023/02/02 00:41:45;;;;;;;2.92;0.50;;;5.50;85.30;;;;;;5085698;28;19985;-64
2023/02/02 00:46:56;;;;;;;0.85;0.40;;;5.40;85.50;;;;;;5061969;28;20048;-60
2023/02/02 00:49:23;;;;;;;1.08;0.40;;;5.50;85.40;;;;;;5085509;28;20048;-62
2023/02/02 00:51:52;;;;;;;1.45;0.40;;;5.40;85.40;;;;;;5088740;28;20071;-71
2023/02/02 00:54:19;;;;;;;0.88;0.30;;;5.40;85.50;;;;;;5082908;28;20043;-70
2023/02/02 00:56:45;;;;;;;0.73;0.30;;;5.40;85.40;;;;;;5082502;28;20051;-60
2023/02/02 00:59:12;;;;;;;1.75;0.30;;;5.40;85.40;;;;;;5085503;28;20040;-60
2023/02/02 01:01:39;;;;;;;1.30;0.40;;;5.40;85.40;;;;;;5087014;28;20043;-60
2023/02/02 01:04:07;;;;;;;0.80;0.30;;;5.30;85.60;;;;;;5084005;28;20055;-59
2023/02/02 01:06:34;;;;;;;0.70;0.40;;;5.30;85.60;;;;;;5085989;28;20051;-61
2023/02/02 01:09:03;;;;;;;0.90;0.38;;;5.30;85.70;;;;;;5084494;28;20080;-61
2023/02/02 01:11:30;;;;;;;0.68;0.30;;;5.30;85.40;;;;;;5086713;28;20043;-70
2023/02/02 01:13:59;;;;;;;0.50;0.28;;;5.30;85.40;;;;;;5085534;28;20044;-69
2023/02/02 01:16:26;;;;;;;1.42;0.35;;;5.30;85.40;;;;;;5063501;28;20457;-68
2023/02/02 01:18:54;;;;;;;1.48;0.30;;;5.20;85.60;;;;;;5060248;28;20044;-67
2023/02/02 01:21:21;;;;;;;1.92;0.30;;;5.30;85.40;;;;;;5087585;28;20052;-60
2023/02/02 01:23:48;;;;;;;0.57;0.28;;;5.20;85.60;;;;;;5087107;28;20048;-61
2023/02/02 01:26:17;;;;;;;0.77;0.30;;;5.20;85.70;;;;;;5082283;28;20052;-63
2023/02/02 01:28:45;;;;;;;0.77;0.30;;;5.20;85.60;;;;;;5085942;28;20079;-62
2023/02/02 01:31:15;;;;;;;1.52;0.30;;;5.20;85.50;;;;;;5086899;28;20052;-60
2023/02/02 01:33:43;;;;;;;0.75;0.28;;;5.30;85.30;;;;;;5086483;28;20065;-60
2023/02/02 01:36:13;;;;;;;2.75;0.30;;;5.30;85.20;;;;;;5085446;28;20516;-65
2023/02/02 01:38:41;;;;;;;0.30;0.17;;;5.30;85.30;;;;;;5083797;28;20052;-64
2023/02/02 01:41:11;;;;;;;0.60;0.20;;;5.20;85.40;;;;;;5090509;28;20465;-63
2023/02/02 01:43:57;;;;;;;1.23;0.20;;;5.20;85.30;;;;;;5091517;28;20044;-63
2023/02/02 01:46:27;;;;;;;0.77;0.20;;;5.20;85.30;;;;;;5087262;28;20051;-61
2023/02/02 01:48:59;;;;;;;1.35;0.20;;;5.20;85.50;;;;;;5072587;28;20063;-61
2023/02/02 01:51:32;;;;;;;4.38;0.80;;;5.20;85.40;;;;;;5072706;28;20469;-63
2023/02/02 01:54:00;;;;;;;2.97;0.95;;;5.20;85.30;;;;;;5089211;28;20044;-64
2023/02/02 01:56:32;;;;;;;2.53;0.60;;;5.10;85.40;;;;;;5069130;28;20453;-60
2023/02/02 01:59:02;;;;;;;2.50;0.70;;;5.10;85.50;;;;;;5091214;28;20047;-61
2023/02/02 02:01:29;;;;;;;1.02;0.40;;;5.10;85.90;;;;;;5079458;28;20477;-59
2023/02/02 02:03:56;;;;;;;0.90;0.40;;;5.00;86.10;;;;;;5072206;28;20597;-60
2023/02/02 02:06:25;;;;;;;1.83;0.43;;;5.00;86.30;;;;;;5088542;28;20052;-64
2023/02/02 02:08:54;;;;;;;2.13;0.20;;;5.00;86.30;;;;;;5090476;28;20105;-64
2023/02/02 02:11:23;;;;;;;2.33;0.30;;;5.00;86.40;;;;;;5089317;28;20051;-67
2023/02/02 02:16:52;;;;;;;0.50;0.20;;;5.00;86.60;;;;;;5042790;28;20051;-69
2023/02/02 02:29:31;;;;;;;0.75;0.30;;;5.00;86.90;;;;;;5089269;28;20503;-69
2023/02/02 02:32:13;;;;;;;0.20;0.20;;;5.00;87.10;;;;;;5061884;28;20450;-61
2023/02/02 02:34:51;;;;;;;0.95;0.20;;;5.00;87.20;;;;;;5083683;28;20048;-61
2023/02/02 02:37:29;;;;;;;1.00;0.30;;;5.00;87.20;;;;;;5071136;28;20047;-60
2023/02/02 02:40:02;;;;;;;0.70;0.30;;;5.00;87.10;;;;;;5069451;28;20133;-59
2023/02/02 02:42:33;;;;;;;1.80;0.20;;;5.00;87.10;;;;;;5090008;28;20057;-64
2023/02/02 02:45:02;;;;;;;0.75;0.30;;;5.00;87.20;;;;;;5089645;28;20047;-63
2023/02/02 02:47:32;;;;;;;0.40;0.20;;;5.00;87.30;;;;;;5070971;28;20048;-59
2023/02/02 02:49:59;;;;;;;0.93;0.50;;;5.00;87.30;;;;;;5066842;28;20051;-59
2023/02/02 02:52:26;;;;;;;0.77;0.30;;;5.00;87.30;;;;;;5065342;28;20052;-71
2023/02/02 02:54:55;;;;;;;1.02;0.20;;;5.00;87.40;;;;;;5065513;28;20050;-71
2023/02/02 02:57:41;;;;;;;0.45;0.30;;;5.00;87.40;;;;;;5088852;28;20051;-60
2023/02/02 03:00:32;;;;;;;0.90;0.20;;;4.90;87.50;;;;;;5087483;28;20389;-60
2023/02/02 03:03:09;;;;;;;0.82;0.30;;;5.00;87.60;;;;;;5084269;28;20044;-61
2023/02/02 03:05:46;;;;;;;0.15;0.10;;;5.00;87.60;;;;;;5088660;28;20071;-64
2023/02/02 03:08:18;;;;;;;0.20;0.20;;;5.00;87.70;;;;;;5087889;28;20059;-63
2023/02/02 03:10:46;;;;;;;0.20;0.20;;;5.00;87.70;;;;;;5090561;28;20059;-67
2023/02/02 03:13:15;;;;;;;0.60;0.30;;;4.90;87.90;;;;;;5087714;28;20036;-65
2023/02/02 03:15:43;;;;;;;0.20;0.20;;;5.00;87.90;;;;;;5088936;28;20045;-62
2023/02/02 03:18:13;;;;;;;0.35;0.20;;;5.00;87.90;;;;;;5090290;28;20214;-63
2023/02/02 03:20:40;;;;;;;0.82;0.22;;;5.00;87.90;;;;;;5089173;28;20048;-60
2023/02/02 03:23:07;;;;;;;0.20;0.20;;;5.00;88.00;;;;;;5085547;28;20056;-60
2023/02/02 03:25:34;;;;;;;1.08;0.50;;;4.90;88.10;;;;;;5083109;28;20094;-58
2023/02/02 03:28:01;;;;;;;0.82;0.40;;;5.00;88.20;;;;;;5087350;28;20059;-59
2023/02/02 03:30:28;;;;;;;0.20;0.20;;;5.00;88.10;;;;;;5087246;28;20052;-60
2023/02/02 03:32:55;;;;;;;1.35;0.40;;;5.00;87.90;;;;;;5089744;28;20077;-60
2023/02/02 03:35:24;;;;;;;1.08;0.40;;;5.10;87.60;;;;;;5088809;28;20083;-70
2023/02/02 03:37:52;;;;;;;1.33;0.30;;;5.00;87.80;;;;;;5088966;28;20059;-70
2023/02/02 03:40:19;;;;;;;0.93;0.50;;;5.00;87.70;;;;;;5089635;28;20072;-66
2023/02/02 03:42:46;;;;;;;1.02;0.32;;;5.00;88.00;;;;;;5089402;28;20055;-61
2023/02/02 03:45:13;;;;;;;0.85;0.40;;;5.00;88.10;;;;;;5090204;28;20600;-60
2023/02/02 03:47:39;;;;;;;0.77;0.40;;;5.00;88.20;;;;;;5090113;28;20048;-61
2023/02/02 03:50:09;;;;;;;0.73;0.40;;;5.00;88.20;;;;;;5088829;28;20052;-59
2023/02/02 03:52:37;;;;;;;1.33;0.43;;;5.00;88.30;;;;;;5089054;28;20080;-63
2023/02/02 03:55:05;;;;;;;1.52;0.52;;;5.00;88.20;;;;;;5088591;28;20486;-62
2023/02/02 03:57:32;;;;;;;1.67;0.50;;;5.00;88.30;;;;;;5089433;28;20055;-59
2023/02/02 03:59:59;;;;;;;1.40;0.60;;;5.00;88.30;;;;;;5089679;28;20048;-60
2023/02/02 04:02:26;;;;;;;2.05;0.60;;;5.00;88.30;;;;;;5089218;28;20085;-61
2023/02/02 04:04:52;;;;;;;1.35;0.40;;;5.00;88.40;;;;;;5087712;28;20060;-62
2023/02/02 04:07:19;;;;;;;1.48;0.70;;;5.00;88.40;;;;;;5070455;28;20388;-59
2023/02/02 04:09:47;;;;;;;1.60;0.68;;;5.00;88.40;;;;;;5088367;28;20058;-61
2023/02/02 04:12:14;;;;;;;1.88;0.80;;;5.00;88.20;;;;;;5088782;28;20047;-58
2023/02/02 04:14:41;;;;;;;3.08;0.70;;;5.10;88.20;;;;;;5088469;28;20051;-58
2023/02/02 04:17:08;;;;;;;1.20;0.60;;;5.00;88.10;;;;;;5088924;28;20052;-60
2023/02/02 04:19:35;;;;;;;1.52;0.70;;;5.10;88.30;;;;;;5088833;28;20059;-60
2023/02/02 04:22:02;;;;;;;3.38;0.68;;;5.00;88.30;;;;;;5087746;28;20553;-66
2023/02/02 04:24:28;;;;;;;2.10;0.70;;;5.00;88.30;;;;;;5086587;28;20040;-66
2023/02/02 04:26:56;;;;;;;1.30;0.60;;;5.00;88.40;;;;;;5086152;28;20063;-66
2023/02/02 04:29:24;;;;;;;2.45;0.70;;;5.00;88.40;;;;;;5086428;28;20482;-66
2023/02/02 04:31:51;;;;;;;1.85;0.85;;;5.00;88.50;;;;;;5088212;28;20048;-70
2023/02/02 04:34:18;;;;;;;1.80;0.70;;;5.00;88.50;;;;;;5087401;28;20453;-70
2023/02/02 04:36:44;;;;;;;1.60;0.75;;;5.00;88.50;;;;;;5088497;28;20052;-65
2023/02/02 04:39:11;;;;;;;2.20;0.60;;;5.00;88.60;;;;;;5087521;28;20106;-66
2023/02/02 04:41:38;;;;;;;2.22;1.00;;;5.10;88.60;;;;;;5086648;28;20502;-61
2023/02/02 04:44:13;;;;;;;2.58;0.95;;;5.10;88.60;;;;;;5088823;28;20051;-63
2023/02/02 04:46:40;;;;;;;2.92;0.90;;;5.00;88.70;;;;;;5088613;28;20167;-66
2023/02/02 04:49:08;;;;;;;3.53;0.73;;;5.00;88.80;;;;;;5087372;28;20056;-66
2023/02/02 04:51:35;;;;;;;2.22;0.82;;;5.00;88.80;;;;;;5087252;28;20055;-63
2023/02/02 04:54:02;;;;;;;3.08;0.93;;;5.00;88.90;;;;;;5087964;28;20048;-64
2023/02/02 04:56:28;;;;;;;3.92;0.90;;;5.10;88.80;;;;;;5087265;28;20067;-70
2023/02/02 04:58:55;;;;;;;1.27;0.77;;;5.00;88.70;;;;;;5085551;28;20051;-70
2023/02/02 05:01:24;;;;;;;1.35;0.70;;;5.10;88.80;;;;;;5083585;28;20048;-63
2023/02/02 05:03:51;;;;;;;1.83;0.90;;;5.10;88.70;;;;;;5088336;28;20101;-63
2023/02/02 05:06:19;;;;;;;2.80;0.90;;;5.10;88.80;;;;;;5086198;28;20117;-61
2023/02/02 05:08:46;;;;;;;1.83;0.85;;;5.00;88.90;;;;;;5086780;28;20529;-63
2023/02/02 05:11:15;;;;;;;2.53;0.90;;;5.00;89.00;;;;;;5085746;28;20056;-64
2023/02/02 05:13:45;;;;;;;2.10;0.80;;;5.00;88.90;;;;;;5087594;28;20048;-64
2023/02/02 05:16:13;;;;;;;1.83;0.73;;;5.00;89.00;;;;;;5086394;28;20359;-63
2023/02/02 05:18:42;;;;;;;3.47;0.88;;;5.00;88.90;;;;;;5087272;28;20050;-63
2023/02/02 05:21:09;;;;;;;2.95;0.80;;;5.00;89.00;;;;;;5088160;28;20052;-62
2023/02/02 05:23:41;;;;;;;1.63;0.80;;;5.00;89.00;;;;;;5087140;28;20489;-62
2023/02/02 05:26:11;;;;;;;2.13;0.80;;;5.10;89.00;;;;;;5087561;28;20036;-64
2023/02/02 05:28:40;;;;;;;3.55;1.00;;;5.00;89.00;;;;;;5087314;28;20510;-64
2023/02/02 05:31:07;;;;;;;3.13;0.80;;;5.10;89.10;;;;;;5087397;28;20080;-63
2023/02/02 05:33:34;;;;;;;2.08;0.90;;;5.10;89.10;;;;;;5086637;28;20059;-62
2023/02/02 05:36:02;;;;;;;2.63;1.00;;;5.00;89.20;;;;;;5087997;28;20048;-59
2023/02/02 05:38:31;;;;;;;3.78;0.57;;;5.00;89.30;;;;;;5087055;28;20049;-59
2023/02/02 05:40:58;;;;;;;2.30;0.73;;;5.00;89.40;;;;;;5089359;28;20048;-59
2023/02/02 05:43:25;;;;;;;2.58;0.80;;;5.00;89.30;;;;;;5080254;28;20048;-60
2023/02/02 05:45:52;;;;;;;3.40;1.00;;;5.00;89.30;;;;;;5089011;28;20074;-60
2023/02/02 05:48:19;;;;;;;2.40;1.02;;;5.00;89.40;;;;;;5085499;28;20054;-61
2023/02/02 05:50:55;;;;;;;3.30;1.27;;;5.00;89.40;;;;;;5084859;28;20109;-70
2023/02/02 05:53:24;;;;;;;2.53;1.13;;;5.10;89.40;;;;;;5082058;28;20090;-68
2023/02/02 05:55:51;;;;;;;1.90;0.95;;;5.10;89.40;;;;;;5088305;28;20044;-69
2023/02/02 05:58:17;;;;;;;2.97;1.88;;;5.00;89.40;;;;;;5086133;28;20067;-68
2023/02/02 06:00:45;;;;;;;2.78;1.40;;;5.10;89.50;;;;;;5086996;28;20437;-60
2023/02/02 06:03:12;;;;;;;2.58;1.38;;;5.10;89.30;;;;;;5087188;28;20106;-61
2023/02/02 06:05:39;;;;;;;4.55;1.75;;;5.10;89.30;;;;;;5086581;28;20059;-69
2023/02/02 06:08:06;;;;;;;2.85;1.58;;;5.10;89.10;;;;;;5086428;28;20419;-70
2023/02/02 06:10:34;;;;;;;4.97;1.98;;;5.10;89.30;;;;;;5085557;28;20410;-65
2023/02/02 06:13:03;;;;;;;3.95;1.60;;;5.10;89.30;;;;;;5085427;28;20402;-64
2023/02/02 06:15:31;;;;;;;5.03;2.20;;;5.10;89.40;;;;;;5087108;28;20051;-62
2023/02/02 06:17:59;;;;;;;4.53;1.88;;;5.10;89.30;;;;;;5087261;28;20056;-63
2023/02/02 06:20:25;;;;;;;3.53;1.65;;;5.10;89.40;;;;;;5085690;28;20127;-64
2023/02/02 06:22:52;;;;;;;3.50;1.88;;;5.10;89.40;;;;;;5086423;28;20056;-63
2023/02/02 06:25:19;;;;;;;5.03;2.40;;;5.10;89.40;;;;;;5086510;28;20475;-64
2023/02/02 06:27:48;;;;;;;3.40;1.90;;;5.20;89.30;;;;;;5090054;28;20063;-64
2023/02/02 06:30:15;;;;;;;4.60;2.22;;;5.10;89.50;;;;;;5091276;28;20513;-63
2023/02/02 06:32:42;;;;;;;4.63;2.33;;;5.10;89.50;;;;;;5090786;28;20048;-64
2023/02/02 06:35:11;;;;;;;4.93;2.30;;;5.10;89.50;;;;;;5090254;28;20093;-63
2023/02/02 06:37:38;;;;;;;4.38;2.17;;;5.00;89.70;;;;;;5090876;28;20057;-63
2023/02/02 06:40:07;;;;;;;4.00;2.15;;;5.10;89.80;;;;;;5090540;28;20076;-61
2023/02/02 06:42:35;;;;;;;4.63;1.90;;;5.10;89.30;;;;;;5090169;28;20063;-70
2023/02/02 06:45:03;;;;;;;5.28;1.92;;;5.10;89.60;;;;;;5087589;28;20127;-69
2023/02/02 06:47:32;;;;;;;4.78;1.80;;;5.10;89.70;;;;;;5088738;28;20048;-60
2023/02/02 06:49:59;;;;;;;4.03;1.63;;;5.10;89.60;;;;;;5087815;28;20068;-59
2023/02/02 06:52:26;;;;;;;4.00;1.52;;;5.10;89.70;;;;;;5089221;28;20056;-62
2023/02/02 06:54:53;;;;;;;4.57;2.15;;;5.10;89.70;;;;;;5087724;28;20101;-61
2023/02/02 06:57:19;;;;;;;3.80;1.92;;;5.20;89.70;;;;;;5086988;28;20047;-63
2023/02/02 06:59:46;;;;;;;5.05;1.98;;;5.20;89.50;;;;;;5070266;28;20070;-63
2023/02/02 07:02:14;;;;;;;4.05;2.08;;;5.20;89.60;;;;;;5090532;28;20058;-58
2023/02/02 07:04:41;;;;;;;5.45;2.35;;;5.20;89.50;;;;;;5089458;28;20048;-59
2023/02/02 07:07:08;;;;;;;6.35;2.28;;;5.20;89.60;;;;;;5090002;28;20056;-60
2023/02/02 07:09:35;;;;;;;5.57;2.30;;;5.30;89.70;;;;;;5087941;28;20083;-60
2023/02/02 07:12:02;;;;;;;4.93;2.55;;;5.30;89.30;;;;;;5088810;28;20059;-59
2023/02/02 07:14:29;;;;;;;4.70;2.33;;;5.30;89.80;;;;;;5088019;28;20510;-60
2023/02/02 07:16:56;;;;;;;6.68;2.47;;;5.30;89.70;;;;;;5088280;28;20079;-60
2023/02/02 07:19:24;;;;;;;5.70;2.42;;;5.30;89.60;;;;;;5088804;28;20052;-59
2023/02/02 07:21:51;;;;;;;5.78;2.47;;;5.40;89.80;;;;;;5089748;28;20044;-59
2023/02/02 07:24:18;;;;;;;7.30;2.30;;;5.40;90.10;;;;;;5088804;28;20040;-59
2023/02/02 07:26:45;;;;;;;5.32;2.30;;;5.40;90.00;;;;;;5090217;28;20074;-60
2023/02/02 07:29:13;;;;;;;4.15;2.13;;;5.50;90.20;;;;;;5089963;28;20072;-59
2023/02/02 07:31:40;;;;;;;5.55;2.30;;;5.50;90.30;;;;;;5090119;28;20059;-62
2023/02/02 07:34:07;;;;;;;4.22;1.80;;;5.50;90.20;;;;;;5088409;28;20052;-62
2023/02/02 07:36:37;;;;;;;4.43;1.80;;;5.50;90.70;;;;;;5087831;28;20063;-60
2023/02/02 07:39:06;;;;;;;4.25;1.75;;;5.60;90.90;;;;;;5087873;28;20051;-61
2023/02/02 07:41:35;;;;;;;7.00;1.60;;;5.60;91.30;;;;;;5090161;28;20056;-62
2023/02/02 07:44:02;;;;;;;4.60;1.52;;;5.60;91.40;;;;;;5089803;28;20048;-62
2023/02/02 07:46:29;;;;;;;5.47;1.52;;;5.60;91.30;;;;;;5089230;28;20051;-61
2023/02/02 07:48:56;;;;;;;4.95;1.50;;;5.70;91.10;;;;;;5088631;28;20097;-63
2023/02/02 07:51:24;;;;;;;5.82;1.48;;;5.70;91.20;;;;;;5089756;28;20055;-59
2023/02/02 07:53:57;;;;;;;4.15;1.30;;;5.70;91.50;;;;;;5088196;28;20131;-60
2023/02/02 07:56:26;;;;;;;2.65;1.20;;;5.70;91.40;;;;;;5089181;28;20056;-60
2023/02/02 07:58:54;;;;;;;4.47;1.60;;;5.70;91.40;;;;;;5083505;28;20136;-58
2023/02/02 08:01:22;;;;;;;4.65;1.50;;;5.70;91.30;;;;;;5087565;28;20044;-64
2023/02/02 08:03:49;;;;;;;6.22;1.90;;;5.80;91.30;;;;;;5088666;28;20589;-64
2023/02/02 08:06:19;;;;;;;2.58;1.00;;;5.80;91.20;;;;;;5087689;28;20067;-68
2023/02/02 08:08:47;;;;;;;3.25;1.30;;;5.80;91.50;;;;;;5088594;28;20383;-68
2023/02/02 08:11:17;;;;;;;3.35;1.23;;;5.80;91.70;;;;;;5088155;28;20055;-66
2023/02/02 08:13:45;;;;;;;4.22;1.33;;;5.80;91.50;;;;;;5088479;28;20076;-64
2023/02/02 08:16:12;;;;;;;2.60;0.90;;;5.80;91.50;;;;;;5086660;28;20056;-65
2023/02/02 08:18:39;;;;;;;4.28;1.10;;;5.80;91.30;;;;;;5088680;28;20067;-64
2023/02/02 08:21:08;;;;;;;5.18;1.30;;;5.90;91.50;;;;;;5086761;28;20056;-61
2023/02/02 08:23:35;;;;;;;3.58;1.10;;;5.90;91.50;;;;;;5088203;28;20043;-62
2023/02/02 08:26:07;;;;;;;3.85;1.33;;;5.90;91.60;;;;;;5086259;28;20036;-62
2023/02/02 08:28:35;;;;;;;3.22;1.20;;;5.90;91.70;;;;;;5083836;28;20487;-62
2023/02/02 08:31:05;;;;;;;6.78;1.65;;;5.90;91.50;;;;;;5085413;28;20080;-60
2023/02/02 08:33:36;;;;;;;5.60;1.40;;;5.90;91.50;;;;;;5086189;28;20135;-60
2023/02/02 08:36:04;;;;;;;5.82;1.27;;;6.00;91.40;;;;;;5083056;28;20422;-61
2023/02/02 08:38:31;;;;;;;4.60;1.42;;;6.00;91.50;;;;;;5085508;28;20055;-63
2023/02/02 08:41:04;;;;;;;3.30;1.42;;;6.00;91.60;;;;;;5086371;28;20044;-69
2023/02/02 08:43:31;;;;;;;2.28;1.17;;;6.00;91.50;;;;;;5087153;28;20044;-69
2023/02/02 08:45:59;;;;;;;6.60;2.13;;;6.10;91.60;;;;;;5088326;28;20059;-60
2023/02/02 08:48:26;;;;;;;21.70;9.18;;;6.00;91.60;;;;;;5082724;28;20548;-60
2023/02/02 08:50:54;;;;;;;24.13;9.50;;;6.10;91.60;;;;;;5083821;28;20117;-58
2023/02/02 08:53:22;;;;;;;19.77;8.43;;;6.10;91.70;;;;;;5082181;28;20052;-59
2023/02/02 08:55:49;;;;;;;14.45;5.88;;;6.10;91.70;;;;;;5086216;28;20134;-58
2023/02/02 08:58:16;;;;;;;14.20;4.63;;;6.10;91.50;;;;;;5083167;28;20052;-59
2023/02/02 09:00:43;;;;;;;10.77;3.45;;;6.10;91.60;;;;;;5079434;28;20052;-60
2023/02/02 09:03:11;;;;;;;7.63;3.55;;;6.10;91.60;;;;;;5082840;28;20062;-59
2023/02/02 09:05:38;;;;;;;7.50;2.80;;;6.10;91.60;;;;;;5060902;28;20403;-58
2023/02/02 09:08:05;;;;;;;8.00;2.92;;;6.10;91.40;;;;;;5088068;28;20051;-59
2023/02/02 09:10:34;;;;;;;6.65;2.40;;;6.20;91.50;;;;;;5087449;28;20047;-59
2023/02/02 09:13:02;;;;;;;6.63;2.85;;;6.20;91.60;;;;;;5083134;28;20052;-58
2023/02/02 09:15:29;;;;;;;3.88;2.03;;;6.20;91.60;;;;;;5082753;28;20074;-58
2023/02/02 09:17:56;;;;;;;6.20;3.00;;;6.20;91.40;;;;;;5084764;28;20055;-57
2023/02/02 09:20:25;;;;;;;6.75;3.17;;;6.20;91.40;;;;;;5084233;28;20048;-59
2023/02/02 09:22:51;;;;;;;4.68;2.50;;;6.20;91.50;;;;;;5087188;28;20055;-58
2023/02/02 09:25:18;;;;;;;6.93;2.65;;;6.30;91.50;;;;;;5087741;28;20055;-59
2023/02/02 09:27:45;;;;;;;4.85;1.77;;;6.30;91.50;;;;;;5085567;28;20063;-58
2023/02/02 09:30:14;;;;;;;5.60;2.30;;;6.30;91.60;;;;;;5083959;28;20056;-59
2023/02/02 09:32:41;;;;;;;8.88;3.00;;;6.30;91.40;;;;;;5085471;28;20056;-58
2023/02/02 09:35:08;;;;;;;6.20;2.30;;;6.30;91.30;;;;;;5086682;28;20055;-58
2023/02/02 09:37:37;;;;;;;6.30;2.65;;;6.30;91.50;;;;;;5086800;28;20047;-59
2023/02/02 09:40:04;;;;;;;6.47;2.85;;;6.40;91.50;;;;;;5087851;28;20102;-59
2023/02/02 09:42:49;;;;;;;4.95;2.38;;;6.40;91.40;;;;;;5085756;28;20074;-58
2023/02/02 09:45:25;;;;;;;6.45;2.55;;;6.40;91.40;;;;;;5086015;28;20044;-58
2023/02/02 09:47:54;;;;;;;7.15;2.20;;;6.40;91.30;;;;;;5087786;28;20414;-61
2023/02/02 09:50:37;;;;;;;4.22;2.20;;;6.40;91.40;;;;;;5081281;28;20498;-57
2023/02/02 09:53:15;;;;;;;6.55;2.30;;;6.40;91.50;;;;;;5088279;28;20055;-59
2023/02/02 09:55:46;;;;;;;6.43;2.40;;;6.40;91.40;;;;;;5083709;28;20505;-58
2023/02/02 09:58:19;;;;;;;6.20;2.30;;;6.50;91.50;;;;;;5080440;28;20039;-59
2023/02/02 10:00:53;;;;;;;4.57;2.42;;;6.40;91.50;;;;;;5086769;28;20071;-59
2023/02/02 10:03:25;;;;;;;7.75;2.45;;;6.50;91.40;;;;;;5090148;28;20052;-59
2023/02/02 10:05:57;;;;;;;6.18;2.15;;;6.50;91.50;;;;;;5086928;28;20133;-58
2023/02/02 10:08:33;;;;;;;6.43;2.20;;;6.50;91.30;;;;;;5087134;28;20051;-59
2023/02/02 10:11:01;;;;;;;6.57;3.40;;;6.60;91.40;;;;;;5090006;28;20056;-59
2023/02/02 10:13:32;;;;;;;8.48;3.17;;;6.60;91.30;;;;;;5090798;28;20101;-58
2023/02/02 10:16:04;;;;;;;6.65;3.00;;;6.60;91.30;;;;;;5087195;28;20213;-58
2023/02/02 10:18:40;;;;;;;4.63;2.38;;;6.60;91.50;;;;;;5089901;28;20040;-58
2023/02/02 10:21:12;;;;;;;5.40;2.20;;;6.60;91.50;;;;;;5087791;28;20259;-58
2023/02/02 10:23:44;;;;;;;4.47;2.08;;;6.60;91.50;;;;;;5090426;28;20056;-58
2023/02/02 10:26:17;;;;;;;5.10;2.00;;;6.60;91.40;;;;;;5091085;28;20052;-58
2023/02/02 10:28:59;;;;;;;5.28;2.10;;;6.60;91.50;;;;;;5091098;28;20113;-58
2023/02/02 10:31:41;;;;;;;6.30;2.20;;;6.60;91.50;;;;;;5087679;28;20052;-58
2023/02/02 10:34:15;;;;;;;3.72;1.83;;;6.70;91.60;;;;;;5088923;28;20048;-58
2023/02/02 10:36:52;;;;;;;4.13;2.05;;;6.70;91.40;;;;;;5090151;28;20058;-58
2023/02/02 10:39:30;;;;;;;4.32;1.80;;;6.70;91.40;;;;;;5089668;28;20048;-58
2023/02/02 10:42:06;;;;;;;4.85;1.92;;;6.70;91.40;;;;;;5089576;28;20047;-59
2023/02/02 10:44:41;;;;;;;5.90;2.10;;;6.70;91.30;;;;;;5090451;28;20068;-59
2023/02/02 10:47:13;;;;;;;4.85;1.65;;;6.70;91.30;;;;;;5085993;28;20423;-60
2023/02/02 10:49:40;;;;;;;4.88;1.88;;;6.70;91.10;;;;;;5090158;28;20056;-59
2023/02/02 10:52:16;;;;;;;5.38;2.10;;;6.70;91.20;;;;;;5086427;28;20054;-59
2023/02/02 10:54:52;;;;;;;6.57;2.17;;;6.70;91.10;;;;;;5089112;28;20075;-59
2023/02/02 10:57:27;;;;;;;6.38;2.25;;;6.70;91.20;;;;;;5089685;28;20040;-58
2023/02/02 11:00:04;;;;;;;7.28;2.55;;;6.70;91.00;;;;;;5089065;28;20044;-58
2023/02/02 11:02:31;;;;;;;7.97;2.30;;;6.70;91.20;;;;;;5089070;28;20530;-58
2023/02/02 11:07:43;;;;;;;3.65;1.45;;;6.70;91.20;;;;;;5089100;28;20534;-62
2023/02/02 11:10:12;;;;;;;4.22;1.80;;;6.80;91.00;;;;;;5090824;28;20048;-61
2023/02/02 11:12:42;;;;;;;5.47;1.92;;;6.80;90.90;;;;;;5088594;28;20613;-68
2023/02/02 11:15:24;;;;;;;6.72;2.00;;;6.80;91.00;;;;;;5090093;28;20139;-68
2023/02/02 11:17:51;;;;;;;4.22;1.42;;;6.90;91.00;;;;;;5091207;28;20058;-58
2023/02/02 11:20:24;;;;;;;5.18;1.48;;;6.80;90.80;;;;;;5087748;28;20074;-60
2023/02/02 11:23:00;;;;;;;4.47;1.15;;;6.80;90.90;;;;;;5088392;28;20048;-60
2023/02/02 11:25:32;;;;;;;3.85;1.48;;;6.90;90.90;;;;;;5084186;28;20058;-60
2023/02/02 11:28:02;;;;;;;5.03;1.63;;;6.80;90.90;;;;;;5089507;28;20100;-60
2023/02/02 11:30:34;;;;;;;3.47;1.40;;;6.80;90.90;;;;;;5088902;28;20117;-63
2023/02/02 11:33:20;;;;;;;3.67;1.25;;;6.90;90.90;;;;;;5090447;28;20044;-64
2023/02/02 11:35:54;;;;;;;5.65;1.50;;;6.90;90.80;;;;;;5088938;28;20442;-58
2023/02/02 11:38:21;;;;;;;6.30;2.28;;;6.90;90.70;;;;;;5085052;28;20491;-58
2023/02/02 11:40:55;;;;;;;3.58;1.52;;;6.90;90.70;;;;;;5088541;28;20502;-69
2023/02/02 11:43:27;;;;;;;3.60;1.77;;;6.90;90.60;;;;;;5090335;28;20048;-69
2023/02/02 11:45:57;;;;;;;3.30;1.35;;;6.90;90.50;;;;;;5089950;28;20063;-59
2023/02/02 11:48:29;;;;;;;3.90;1.20;;;7.00;90.40;;;;;;5089258;28;20060;-58
2023/02/02 11:50:57;;;;;;;4.20;1.30;;;7.00;90.30;;;;;;5088922;28;20491;-65
2023/02/02 11:53:27;;;;;;;2.72;1.23;;;7.00;90.30;;;;;;5088425;28;20052;-64
2023/02/02 11:55:57;;;;;;;4.43;1.20;;;7.00;90.30;;;;;;5086262;28;20056;-62
2023/02/02 11:58:26;;;;;;;;;;;7.10;90.30;;;;;;5089165;28;20078;-63
2023/02/02 12:00:56;;;;;;;2.65;0.80;;;7.00;90.30;;;;;;5089316;28;20294;-65
2023/02/02 12:03:29;;;;;;;3.38;0.88;;;7.00;90.30;;;;;;5089261;28;20068;-64
2023/02/02 12:05:56;;;;;;;3.60;1.10;;;7.10;90.20;;;;;;5088984;28;20491;-58
2023/02/02 12:08:24;;;;;;;1.88;0.75;;;7.10;90.20;;;;;;5088968;28;20051;-58
2023/02/02 12:10:58;;;;;;;3.10;1.02;;;7.10;90.30;;;;;;5088441;28;20418;-68
2023/02/02 12:13:50;;;;;;;2.88;1.00;;;7.10;90.10;;;;;;5089020;28;20075;-68
2023/02/02 12:16:31;;;;;;;2.15;0.90;;;7.10;90.20;;;;;;5089325;28;20510;-60
2023/02/02 12:19:17;;;;;;;4.22;1.15;;;7.10;90.20;;;;;;5089598;28;20055;-60
2023/02/02 12:21:53;;;;;;;2.03;0.70;;;7.10;90.30;;;;;;5088476;28;20051;-62
2023/02/02 12:24:30;;;;;;;3.88;1.33;;;7.10;90.40;;;;;;5087713;28;20052;-63
2023/02/02 12:27:11;;;;;;;3.38;1.02;;;7.10;90.40;;;;;;5088521;28;20059;-59
2023/02/02 12:29:52;;;;;;;3.05;1.40;;;7.10;90.20;;;;;;5088368;28;20052;-60
2023/02/02 12:32:32;;;;;;;4.30;1.30;;;7.20;90.40;;;;;;5085384;28;20055;-60
2023/02/02 12:35:20;;;;;;;2.95;0.93;;;7.20;90.40;;;;;;5088097;28;20472;-60
2023/02/02 12:37:54;;;;;;;3.08;1.08;;;7.20;90.40;;;;;;5086872;28;20117;-60
2023/02/02 12:40:41;;;;;;;3.22;1.10;;;7.20;90.30;;;;;;5086118;28;20044;-61
2023/02/02 12:43:22;;;;;;;2.67;1.00;;;7.20;90.30;;;;;;5088370;28;20519;-61
2023/02/02 12:46:08;;;;;;;2.90;0.80;;;7.10;90.40;;;;;;5088445;28;20048;-62
2023/02/02 12:48:47;;;;;;;3.72;1.20;;;7.20;90.40;;;;;;5087625;28;20052;-62
2023/02/02 12:51:30;;;;;;;3.38;1.20;;;7.20;90.40;;;;;;5086891;28;20040;-57
2023/02/02 12:54:10;;;;;;;1.52;0.88;;;7.10;90.40;;;;;;5088033;28;20044;-59
2023/02/02 12:56:44;;;;;;;3.13;1.13;;;7.20;90.40;;;;;;5087461;28;20130;-62
2023/02/02 12:59:27;;;;;;;2.75;0.98;;;7.20;90.50;;;;;;5086530;28;20055;-62
2023/02/02 13:02:04;;;;;;;2.92;1.20;;;7.20;90.50;;;;;;5087684;28;20048;-65
2023/02/02 13:04:47;;;;;;;2.90;1.10;;;7.20;90.50;;;;;;5087323;28;20062;-63
2023/02/02 13:07:32;;;;;;;2.28;0.93;;;7.20;90.50;;;;;;5086997;28;20074;-59
2023/02/02 13:10:08;;;;;;;2.38;0.90;;;7.20;90.60;;;;;;5087780;28;20036;-59
2023/02/02 13:12:41;;;;;;;2.55;0.90;;;7.20;90.50;;;;;;5087960;28;20050;-58
2023/02/02 13:15:14;;;;;;;2.33;1.05;;;7.20;90.40;;;;;;5085802;28;20040;-59
2023/02/02 13:17:46;;;;;;;2.63;1.10;;;7.20;90.50;;;;;;5086108;28;20056;-58
2023/02/02 13:20:22;;;;;;;3.22;0.98;;;7.20;90.50;;;;;;5085971;28;20457;-67
2023/02/02 13:22:54;;;;;;;2.40;0.90;;;7.20;90.40;;;;;;5085888;28;20080;-69
2023/02/02 13:25:27;;;;;;;2.47;1.20;;;7.20;90.40;;;;;;5086417;28;20147;-67
2023/02/02 13:27:56;;;;;;;3.00;1.15;;;7.20;90.50;;;;;;5082028;28;20051;-68
2023/02/02 13:30:31;;;;;;;3.15;1.00;;;7.20;90.30;;;;;;5086151;28;20040;-58
2023/02/02 13:33:02;;;;;;;2.67;1.00;;;7.20;90.40;;;;;;5086776;28;20059;-59